sensor_id;sensor_type;location;lat;lon;timestamp;P1;durP1;ratioP1;P2;durP2;ratioP2
76236;SDS011;65038;53.200;6.530;2023-01-31T00:02:16;30.33;;;4.07;;
76236;SDS011;65038;53.200;6.530;2023-01-31T00:04:42;22.52;;;3.38;;
76236;SDS011;65038;53.200;6.530;2023-01-31T00:07:08;26.15;;;3.80;;
76236;SDS011;65038;53.200;6.530;2023-01-31T00:09:34;19.25;;;3.80;;
76236;SDS011;65038;53.200;6.530;2023-01-31T00:12:00;17.98;;;3.70;;
76236;SDS011;65038;53.200;6.530;2023-01-31T00:14:26;19.40;;;3.97;;
76236;SDS011;65038;53.200;6.530;2023-01-31T00:16:52;24.52;;;3.50;;
76236;SDS011;65038;53.200;6.530;2023-01-31T00:19:18;21.73;;;3.53;;
76236;SDS011;65038;53.200;6.530;2023-01-31T00:21:44;18.77;;;3.50;;
76236;SDS011;65038;53.200;6.530;2023-01-31T00:24:13;19.13;;;3.70;;
76236;SDS011;65038;53.200;6.530;2023-01-31T00:26:39;13.40;;;2.35;;
76236;SDS011;65038;53.200;6.530;2023-01-31T00:29:05;22.08;;;3.92;;
76236;SDS011;65038;53.200;6.530;2023-01-31T00:31:32;22.77;;;3.75;;
76236;SDS011;65038;53.200;6.530;2023-01-31T00:33:58;23.35;;;3.50;;
76236;SDS011;65038;53.200;6.530;2023-01-31T00:36:26;7.32;;;1.23;;
76236;SDS011;65038;53.200;6.530;2023-01-31T00:38:53;20.00;;;3.60;;
76236;SDS011;65038;53.200;6.530;2023-01-31T00:41:20;17.65;;;1.20;;
76236;SDS011;65038;53.200;6.530;2023-01-31T00:43:46;24.80;;;3.92;;
76236;SDS011;65038;53.200;6.530;2023-01-31T00:46:12;16.88;;;2.85;;
76236;SDS011;65038;53.200;6.530;2023-01-31T00:48:38;19.10;;;3.78;;
76236;SDS011;65038;53.200;6.530;2023-01-31T00:51:04;22.05;;;3.50;;
76236;SDS011;65038;53.200;6.530;2023-01-31T00:53:30;21.55;;;3.40;;
76236;SDS011;65038;53.200;6.530;2023-01-31T00:56:04;20.92;;;3.55;;
76236;SDS011;65038;53.200;6.530;2023-01-31T00:58:31;22.13;;;3.22;;
76236;SDS011;65038;53.200;6.530;2023-01-31T01:01:04;20.38;;;3.15;;
76236;SDS011;65038;53.200;6.530;2023-01-31T01:03:30;6.00;;;1.40;;
76236;SDS011;65038;53.200;6.530;2023-01-31T01:05:56;15.25;;;3.00;;
76236;SDS011;65038;53.200;6.530;2023-01-31T01:08:22;17.17;;;3.25;;
76236;SDS011;65038;53.200;6.530;2023-01-31T01:10:48;19.83;;;3.53;;
76236;SDS011;65038;53.200;6.530;2023-01-31T01:13:14;18.38;;;3.25;;
76236;SDS011;65038;53.200;6.530;2023-01-31T01:15:40;17.98;;;2.88;;
76236;SDS011;65038;53.200;6.530;2023-01-31T01:18:06;13.73;;;2.60;;
76236;SDS011;65038;53.200;6.530;2023-01-31T01:20:33;17.55;;;2.83;;
76236;SDS011;65038;53.200;6.530;2023-01-31T01:22:59;25.70;;;3.28;;
76236;SDS011;65038;53.200;6.530;2023-01-31T01:25:25;17.20;;;3.67;;
76236;SDS011;65038;53.200;6.530;2023-01-31T01:27:51;10.40;;;1.30;;
76236;SDS011;65038;53.200;6.530;2023-01-31T01:30:17;19.08;;;3.63;;
76236;SDS011;65038;53.200;6.530;2023-01-31T01:32:45;16.42;;;1.95;;
76236;SDS011;65038;53.200;6.530;2023-01-31T01:35:12;18.65;;;3.30;;
76236;SDS011;65038;53.200;6.530;2023-01-31T01:37:38;19.92;;;3.25;;
76236;SDS011;65038;53.200;6.530;2023-01-31T01:40:04;20.42;;;3.20;;
76236;SDS011;65038;53.200;6.530;2023-01-31T01:42:32;19.33;;;2.85;;
76236;SDS011;65038;53.200;6.530;2023-01-31T01:44:59;12.80;;;1.95;;
76236;SDS011;65038;53.200;6.530;2023-01-31T01:52:38;21.83;;;3.15;;
76236;SDS011;65038;53.200;6.530;2023-01-31T01:55:09;18.48;;;3.30;;
76236;SDS011;65038;53.200;6.530;2023-01-31T01:57:38;16.60;;;2.60;;
76236;SDS011;65038;53.200;6.530;2023-01-31T02:00:08;9.50;;;1.73;;
76236;SDS011;65038;53.200;6.530;2023-01-31T02:02:35;4.55;;;1.02;;
76236;SDS011;65038;53.200;6.530;2023-01-31T02:05:01;21.15;;;3.10;;
76236;SDS011;65038;53.200;6.530;2023-01-31T02:07:28;18.83;;;3.15;;
76236;SDS011;65038;53.200;6.530;2023-01-31T02:12:20;10.85;;;1.60;;
76236;SDS011;65038;53.200;6.530;2023-01-31T02:14:47;16.73;;;3.10;;
76236;SDS011;65038;53.200;6.530;2023-01-31T02:17:14;19.23;;;3.20;;
76236;SDS011;65038;53.200;6.530;2023-01-31T02:22:20;18.27;;;3.30;;
76236;SDS011;65038;53.200;6.530;2023-01-31T02:27:30;23.40;;;3.30;;
76236;SDS011;65038;53.200;6.530;2023-01-31T02:35:25;17.60;;;2.80;;
76236;SDS011;65038;53.200;6.530;2023-01-31T02:43:07;19.95;;;3.30;;
76236;SDS011;65038;53.200;6.530;2023-01-31T02:45:39;19.63;;;3.60;;
76236;SDS011;65038;53.200;6.530;2023-01-31T02:50:37;17.13;;;3.20;;
76236;SDS011;65038;53.200;6.530;2023-01-31T02:55:40;18.48;;;3.03;;
76236;SDS011;65038;53.200;6.530;2023-01-31T02:58:26;16.15;;;2.88;;
76236;SDS011;65038;53.200;6.530;2023-01-31T03:00:55;18.88;;;3.35;;
76236;SDS011;65038;53.200;6.530;2023-01-31T03:03:23;16.13;;;2.90;;
76236;SDS011;65038;53.200;6.530;2023-01-31T03:08:35;16.45;;;2.90;;
76236;SDS011;65038;53.200;6.530;2023-01-31T03:11:02;13.70;;;2.58;;
76236;SDS011;65038;53.200;6.530;2023-01-31T03:19:05;16.25;;;2.85;;
76236;SDS011;65038;53.200;6.530;2023-01-31T03:21:56;14.82;;;2.58;;
76236;SDS011;65038;53.200;6.530;2023-01-31T03:24:25;16.35;;;2.65;;
76236;SDS011;65038;53.200;6.530;2023-01-31T03:26:54;17.42;;;2.70;;
76236;SDS011;65038;53.200;6.530;2023-01-31T03:29:21;16.02;;;3.72;;
76236;SDS011;65038;53.200;6.530;2023-01-31T03:31:59;15.38;;;2.70;;
76236;SDS011;65038;53.200;6.530;2023-01-31T03:34:26;18.92;;;3.10;;
76236;SDS011;65038;53.200;6.530;2023-01-31T03:36:54;13.20;;;2.47;;
76236;SDS011;65038;53.200;6.530;2023-01-31T03:41:56;14.00;;;2.50;;
76236;SDS011;65038;53.200;6.530;2023-01-31T03:44:26;14.68;;;2.80;;
76236;SDS011;65038;53.200;6.530;2023-01-31T03:46:56;15.02;;;2.80;;
76236;SDS011;65038;53.200;6.530;2023-01-31T03:49:24;13.52;;;2.53;;
76236;SDS011;65038;53.200;6.530;2023-01-31T03:51:53;14.90;;;2.70;;
76236;SDS011;65038;53.200;6.530;2023-01-31T03:54:22;18.52;;;3.22;;
76236;SDS011;65038;53.200;6.530;2023-01-31T03:56:54;13.57;;;2.85;;
76236;SDS011;65038;53.200;6.530;2023-01-31T03:59:24;16.70;;;3.20;;
76236;SDS011;65038;53.200;6.530;2023-01-31T04:01:52;16.35;;;2.75;;
76236;SDS011;65038;53.200;6.530;2023-01-31T04:04:21;19.05;;;3.30;;
76236;SDS011;65038;53.200;6.530;2023-01-31T04:06:49;22.17;;;3.45;;
76236;SDS011;65038;53.200;6.530;2023-01-31T04:09:15;21.08;;;3.65;;
76236;SDS011;65038;53.200;6.530;2023-01-31T04:11:41;18.52;;;3.35;;
76236;SDS011;65038;53.200;6.530;2023-01-31T04:14:08;16.17;;;3.05;;
76236;SDS011;65038;53.200;6.530;2023-01-31T04:16:34;20.85;;;3.25;;
76236;SDS011;65038;53.200;6.530;2023-01-31T04:19:00;22.13;;;3.25;;
76236;SDS011;65038;53.200;6.530;2023-01-31T04:21:26;18.92;;;2.90;;
76236;SDS011;65038;53.200;6.530;2023-01-31T04:23:52;17.33;;;3.03;;
76236;SDS011;65038;53.200;6.530;2023-01-31T04:26:18;18.58;;;3.30;;
76236;SDS011;65038;53.200;6.530;2023-01-31T04:28:44;24.60;;;3.90;;
76236;SDS011;65038;53.200;6.530;2023-01-31T04:31:10;17.15;;;3.25;;
76236;SDS011;65038;53.200;6.530;2023-01-31T04:33:36;21.27;;;3.65;;
76236;SDS011;65038;53.200;6.530;2023-01-31T04:36:02;19.55;;;3.92;;
76236;SDS011;65038;53.200;6.530;2023-01-31T04:38:28;22.30;;;3.45;;
76236;SDS011;65038;53.200;6.530;2023-01-31T04:40:54;18.70;;;3.70;;
76236;SDS011;65038;53.200;6.530;2023-01-31T04:43:20;24.20;;;4.60;;
76236;SDS011;65038;53.200;6.530;2023-01-31T04:45:46;17.40;;;3.33;;
76236;SDS011;65038;53.200;6.530;2023-01-31T04:48:12;18.75;;;3.90;;
76236;SDS011;65038;53.200;6.530;2023-01-31T04:50:38;23.23;;;4.25;;
76236;SDS011;65038;53.200;6.530;2023-01-31T04:53:04;24.30;;;3.95;;
76236;SDS011;65038;53.200;6.530;2023-01-31T04:55:32;32.65;;;4.95;;
76236;SDS011;65038;53.200;6.530;2023-01-31T04:57:58;25.48;;;4.45;;
76236;SDS011;65038;53.200;6.530;2023-01-31T05:00:24;19.20;;;4.38;;
76236;SDS011;65038;53.200;6.530;2023-01-31T05:02:50;24.85;;;4.68;;
76236;SDS011;65038;53.200;6.530;2023-01-31T05:05:17;25.33;;;4.90;;
76236;SDS011;65038;53.200;6.530;2023-01-31T05:07:43;29.17;;;5.38;;
76236;SDS011;65038;53.200;6.530;2023-01-31T05:10:09;23.90;;;4.97;;
76236;SDS011;65038;53.200;6.530;2023-01-31T05:12:35;22.42;;;4.68;;
76236;SDS011;65038;53.200;6.530;2023-01-31T05:15:02;18.27;;;4.38;;
76236;SDS011;65038;53.200;6.530;2023-01-31T05:17:28;23.83;;;3.97;;
76236;SDS011;65038;53.200;6.530;2023-01-31T05:19:55;24.75;;;4.55;;
76236;SDS011;65038;53.200;6.530;2023-01-31T05:22:21;24.60;;;4.40;;
76236;SDS011;65038;53.200;6.530;2023-01-31T05:24:47;20.83;;;4.53;;
76236;SDS011;65038;53.200;6.530;2023-01-31T05:27:14;25.45;;;4.70;;
76236;SDS011;65038;53.200;6.530;2023-01-31T05:29:40;23.20;;;4.00;;
76236;SDS011;65038;53.200;6.530;2023-01-31T05:32:07;27.50;;;4.70;;
76236;SDS011;65038;53.200;6.530;2023-01-31T05:34:33;24.98;;;4.38;;
76236;SDS011;65038;53.200;6.530;2023-01-31T05:36:59;22.67;;;4.40;;
76236;SDS011;65038;53.200;6.530;2023-01-31T05:39:25;23.08;;;4.32;;
76236;SDS011;65038;53.200;6.530;2023-01-31T05:41:51;23.05;;;4.78;;
76236;SDS011;65038;53.200;6.530;2023-01-31T05:44:18;24.15;;;3.90;;
76236;SDS011;65038;53.200;6.530;2023-01-31T05:46:44;7.57;;;2.25;;
76236;SDS011;65038;53.200;6.530;2023-01-31T05:49:10;25.48;;;4.50;;
76236;SDS011;65038;53.200;6.530;2023-01-31T05:51:37;23.45;;;4.50;;
76236;SDS011;65038;53.200;6.530;2023-01-31T05:54:03;25.48;;;4.18;;
76236;SDS011;65038;53.200;6.530;2023-01-31T05:56:29;19.98;;;4.35;;
76236;SDS011;65038;53.200;6.530;2023-01-31T05:58:55;23.98;;;4.50;;
76236;SDS011;65038;53.200;6.530;2023-01-31T06:01:22;23.77;;;4.55;;
76236;SDS011;65038;53.200;6.530;2023-01-31T06:03:48;20.75;;;4.35;;
76236;SDS011;65038;53.200;6.530;2023-01-31T06:06:15;21.73;;;3.95;;
76236;SDS011;65038;53.200;6.530;2023-01-31T06:08:41;28.08;;;4.03;;
76236;SDS011;65038;53.200;6.530;2023-01-31T06:11:08;24.02;;;4.65;;
76236;SDS011;65038;53.200;6.530;2023-01-31T06:13:38;30.67;;;4.85;;
76236;SDS011;65038;53.200;6.530;2023-01-31T06:16:05;24.55;;;4.72;;
76236;SDS011;65038;53.200;6.530;2023-01-31T06:18:31;23.88;;;4.05;;
76236;SDS011;65038;53.200;6.530;2023-01-31T06:20:57;26.20;;;4.88;;
76236;SDS011;65038;53.200;6.530;2023-01-31T06:23:23;25.90;;;4.90;;
76236;SDS011;65038;53.200;6.530;2023-01-31T06:25:52;18.73;;;4.43;;
76236;SDS011;65038;53.200;6.530;2023-01-31T06:28:19;24.27;;;4.53;;
76236;SDS011;65038;53.200;6.530;2023-01-31T06:30:45;22.38;;;4.65;;
76236;SDS011;65038;53.200;6.530;2023-01-31T06:33:11;22.90;;;4.88;;
76236;SDS011;65038;53.200;6.530;2023-01-31T06:35:37;24.10;;;4.72;;
76236;SDS011;65038;53.200;6.530;2023-01-31T06:38:04;24.58;;;5.22;;
76236;SDS011;65038;53.200;6.530;2023-01-31T06:40:31;27.33;;;4.60;;
76236;SDS011;65038;53.200;6.530;2023-01-31T06:42:57;31.50;;;4.65;;
76236;SDS011;65038;53.200;6.530;2023-01-31T06:45:23;24.63;;;5.05;;
76236;SDS011;65038;53.200;6.530;2023-01-31T06:47:49;17.52;;;4.47;;
76236;SDS011;65038;53.200;6.530;2023-01-31T06:50:15;28.08;;;4.85;;
76236;SDS011;65038;53.200;6.530;2023-01-31T06:52:41;28.48;;;4.70;;
76236;SDS011;65038;53.200;6.530;2023-01-31T06:55:07;19.13;;;4.40;;
76236;SDS011;65038;53.200;6.530;2023-01-31T06:57:34;23.95;;;4.63;;
76236;SDS011;65038;53.200;6.530;2023-01-31T07:00:00;22.25;;;5.07;;
76236;SDS011;65038;53.200;6.530;2023-01-31T07:02:26;21.83;;;4.20;;
76236;SDS011;65038;53.200;6.530;2023-01-31T07:04:52;20.15;;;3.78;;
76236;SDS011;65038;53.200;6.530;2023-01-31T07:07:18;18.13;;;4.00;;
76236;SDS011;65038;53.200;6.530;2023-01-31T07:09:44;24.48;;;4.60;;
76236;SDS011;65038;53.200;6.530;2023-01-31T07:12:10;24.98;;;4.63;;
76236;SDS011;65038;53.200;6.530;2023-01-31T07:14:36;19.50;;;3.80;;
76236;SDS011;65038;53.200;6.530;2023-01-31T07:17:02;29.65;;;5.32;;
76236;SDS011;65038;53.200;6.530;2023-01-31T07:19:28;20.73;;;3.90;;
76236;SDS011;65038;53.200;6.530;2023-01-31T07:21:54;18.17;;;4.43;;
76236;SDS011;65038;53.200;6.530;2023-01-31T07:24:20;17.00;;;3.67;;
76236;SDS011;65038;53.200;6.530;2023-01-31T07:26:46;22.75;;;3.60;;
76236;SDS011;65038;53.200;6.530;2023-01-31T07:29:12;22.08;;;3.88;;
76236;SDS011;65038;53.200;6.530;2023-01-31T07:31:38;24.85;;;4.32;;
76236;SDS011;65038;53.200;6.530;2023-01-31T07:34:04;18.02;;;3.85;;
76236;SDS011;65038;53.200;6.530;2023-01-31T07:36:30;19.33;;;3.92;;
76236;SDS011;65038;53.200;6.530;2023-01-31T07:38:56;23.38;;;4.30;;
76236;SDS011;65038;53.200;6.530;2023-01-31T07:41:24;21.08;;;4.32;;
76236;SDS011;65038;53.200;6.530;2023-01-31T07:43:50;23.63;;;4.07;;
76236;SDS011;65038;53.200;6.530;2023-01-31T07:46:16;20.17;;;3.60;;
76236;SDS011;65038;53.200;6.530;2023-01-31T07:48:42;15.88;;;3.30;;
76236;SDS011;65038;53.200;6.530;2023-01-31T07:51:09;20.63;;;3.67;;
76236;SDS011;65038;53.200;6.530;2023-01-31T07:53:36;18.23;;;3.50;;
76236;SDS011;65038;53.200;6.530;2023-01-31T07:56:24;21.48;;;4.03;;
76236;SDS011;65038;53.200;6.530;2023-01-31T07:58:50;15.98;;;3.25;;
76236;SDS011;65038;53.200;6.530;2023-01-31T08:01:17;19.10;;;3.85;;
76236;SDS011;65038;53.200;6.530;2023-01-31T08:04:02;19.67;;;3.83;;
76236;SDS011;65038;53.200;6.530;2023-01-31T08:06:28;16.27;;;3.38;;
76236;SDS011;65038;53.200;6.530;2023-01-31T08:08:54;19.52;;;3.53;;
76236;SDS011;65038;53.200;6.530;2023-01-31T08:11:21;15.55;;;3.25;;
76236;SDS011;65038;53.200;6.530;2023-01-31T08:13:47;18.27;;;3.22;;
76236;SDS011;65038;53.200;6.530;2023-01-31T08:16:13;19.08;;;3.20;;
76236;SDS011;65038;53.200;6.530;2023-01-31T08:18:39;12.50;;;3.00;;
76236;SDS011;65038;53.200;6.530;2023-01-31T08:21:05;18.83;;;2.53;;
76236;SDS011;65038;53.200;6.530;2023-01-31T08:23:32;16.85;;;3.10;;
76236;SDS011;65038;53.200;6.530;2023-01-31T08:25:59;15.85;;;3.28;;
76236;SDS011;65038;53.200;6.530;2023-01-31T08:28:25;14.15;;;2.97;;
76236;SDS011;65038;53.200;6.530;2023-01-31T08:30:51;14.93;;;2.90;;
76236;SDS011;65038;53.200;6.530;2023-01-31T08:33:17;14.38;;;3.38;;
76236;SDS011;65038;53.200;6.530;2023-01-31T08:35:43;17.73;;;3.30;;
76236;SDS011;65038;53.200;6.530;2023-01-31T08:38:09;16.52;;;3.58;;
76236;SDS011;65038;53.200;6.530;2023-01-31T08:40:35;18.85;;;3.65;;
76236;SDS011;65038;53.200;6.530;2023-01-31T08:43:01;17.20;;;2.75;;
76236;SDS011;65038;53.200;6.530;2023-01-31T08:45:28;14.95;;;3.20;;
76236;SDS011;65038;53.200;6.530;2023-01-31T08:47:54;19.73;;;3.75;;
76236;SDS011;65038;53.200;6.530;2023-01-31T08:50:20;21.27;;;3.83;;
76236;SDS011;65038;53.200;6.530;2023-01-31T08:52:50;16.08;;;3.30;;
76236;SDS011;65038;53.200;6.530;2023-01-31T08:55:16;15.07;;;3.50;;
76236;SDS011;65038;53.200;6.530;2023-01-31T08:57:43;17.05;;;3.58;;
76236;SDS011;65038;53.200;6.530;2023-01-31T09:00:10;14.43;;;3.35;;
76236;SDS011;65038;53.200;6.530;2023-01-31T09:02:36;21.88;;;3.55;;
76236;SDS011;65038;53.200;6.530;2023-01-31T09:05:02;16.15;;;3.08;;
76236;SDS011;65038;53.200;6.530;2023-01-31T09:07:29;19.15;;;3.45;;
76236;SDS011;65038;53.200;6.530;2023-01-31T09:09:55;18.55;;;3.33;;
76236;SDS011;65038;53.200;6.530;2023-01-31T09:12:21;14.52;;;3.30;;
76236;SDS011;65038;53.200;6.530;2023-01-31T09:14:49;17.50;;;3.28;;
76236;SDS011;65038;53.200;6.530;2023-01-31T09:17:15;15.25;;;3.17;;
76236;SDS011;65038;53.200;6.530;2023-01-31T09:19:41;17.58;;;3.30;;
76236;SDS011;65038;53.200;6.530;2023-01-31T09:22:07;12.45;;;3.13;;
76236;SDS011;65038;53.200;6.530;2023-01-31T09:24:34;19.42;;;3.63;;
76236;SDS011;65038;53.200;6.530;2023-01-31T09:27:00;20.42;;;3.70;;
76236;SDS011;65038;53.200;6.530;2023-01-31T09:29:26;17.50;;;4.05;;
76236;SDS011;65038;53.200;6.530;2023-01-31T09:31:54;13.32;;;2.95;;
76236;SDS011;65038;53.200;6.530;2023-01-31T09:34:20;17.58;;;3.28;;
76236;SDS011;65038;53.200;6.530;2023-01-31T09:36:46;16.35;;;3.28;;
76236;SDS011;65038;53.200;6.530;2023-01-31T09:39:13;15.25;;;3.20;;
76236;SDS011;65038;53.200;6.530;2023-01-31T09:41:49;20.77;;;3.60;;
76236;SDS011;65038;53.200;6.530;2023-01-31T09:44:20;18.33;;;3.47;;
76236;SDS011;65038;53.200;6.530;2023-01-31T09:46:49;17.98;;;3.97;;
76236;SDS011;65038;53.200;6.530;2023-01-31T09:49:19;17.92;;;3.30;;
76236;SDS011;65038;53.200;6.530;2023-01-31T09:51:46;18.33;;;3.28;;
76236;SDS011;65038;53.200;6.530;2023-01-31T09:54:18;17.55;;;3.95;;
76236;SDS011;65038;53.200;6.530;2023-01-31T10:00:15;18.77;;;3.60;;
76236;SDS011;65038;53.200;6.530;2023-01-31T10:10:32;22.02;;;3.80;;
76236;SDS011;65038;53.200;6.530;2023-01-31T10:13:02;18.58;;;3.60;;
76236;SDS011;65038;53.200;6.530;2023-01-31T10:15:42;17.42;;;3.63;;
76236;SDS011;65038;53.200;6.530;2023-01-31T10:18:13;15.60;;;3.50;;
76236;SDS011;65038;53.200;6.530;2023-01-31T10:21:28;17.63;;;3.50;;
76236;SDS011;65038;53.200;6.530;2023-01-31T10:26:00;22.50;;;3.75;;
76236;SDS011;65038;53.200;6.530;2023-01-31T10:28:29;20.08;;;3.72;;
76236;SDS011;65038;53.200;6.530;2023-01-31T10:35:57;19.00;;;3.58;;
76236;SDS011;65038;53.200;6.530;2023-01-31T10:38:29;19.27;;;3.65;;
76236;SDS011;65038;53.200;6.530;2023-01-31T10:41:03;15.88;;;3.55;;
76236;SDS011;65038;53.200;6.530;2023-01-31T10:43:38;18.52;;;3.80;;
76236;SDS011;65038;53.200;6.530;2023-01-31T10:46:10;19.38;;;3.50;;
76236;SDS011;65038;53.200;6.530;2023-01-31T10:48:36;17.48;;;3.50;;
76236;SDS011;65038;53.200;6.530;2023-01-31T10:51:12;22.73;;;4.03;;
76236;SDS011;65038;53.200;6.530;2023-01-31T10:58:56;21.75;;;4.20;;
76236;SDS011;65038;53.200;6.530;2023-01-31T11:01:23;20.80;;;4.65;;
76236;SDS011;65038;53.200;6.530;2023-01-31T11:03:52;16.70;;;3.50;;
76236;SDS011;65038;53.200;6.530;2023-01-31T11:06:18;20.95;;;3.80;;
76236;SDS011;65038;53.200;6.530;2023-01-31T11:08:45;22.25;;;4.10;;
76236;SDS011;65038;53.200;6.530;2023-01-31T11:11:16;20.55;;;3.58;;
76236;SDS011;65038;53.200;6.530;2023-01-31T11:14:25;18.90;;;4.13;;
76236;SDS011;65038;53.200;6.530;2023-01-31T11:16:33;22.45;;;3.88;;
76236;SDS011;65038;53.200;6.530;2023-01-31T11:19:01;17.48;;;3.42;;
76236;SDS011;65038;53.200;6.530;2023-01-31T11:21:29;20.60;;;3.33;;
76236;SDS011;65038;53.200;6.530;2023-01-31T11:24:02;15.80;;;3.38;;
76236;SDS011;65038;53.200;6.530;2023-01-31T11:26:30;20.52;;;3.80;;
76236;SDS011;65038;53.200;6.530;2023-01-31T11:28:57;18.92;;;3.55;;
76236;SDS011;65038;53.200;6.530;2023-01-31T11:31:33;24.15;;;3.90;;
76236;SDS011;65038;53.200;6.530;2023-01-31T11:34:01;24.27;;;3.75;;
76236;SDS011;65038;53.200;6.530;2023-01-31T11:36:40;20.48;;;3.65;;
76236;SDS011;65038;53.200;6.530;2023-01-31T11:39:19;21.88;;;4.38;;
76236;SDS011;65038;53.200;6.530;2023-01-31T11:41:48;20.42;;;4.07;;
76236;SDS011;65038;53.200;6.530;2023-01-31T11:49:13;19.08;;;3.65;;
76236;SDS011;65038;53.200;6.530;2023-01-31T11:51:42;25.67;;;4.53;;
76236;SDS011;65038;53.200;6.530;2023-01-31T11:54:10;19.70;;;4.28;;
76236;SDS011;65038;53.200;6.530;2023-01-31T11:56:36;22.50;;;4.43;;
76236;SDS011;65038;53.200;6.530;2023-01-31T11:59:03;23.52;;;3.95;;
76236;SDS011;65038;53.200;6.530;2023-01-31T12:01:32;23.80;;;4.20;;
76236;SDS011;65038;53.200;6.530;2023-01-31T12:04:02;24.60;;;4.00;;
76236;SDS011;65038;53.200;6.530;2023-01-31T12:06:33;24.42;;;3.50;;
76236;SDS011;65038;53.200;6.530;2023-01-31T12:09:01;23.35;;;3.95;;
76236;SDS011;65038;53.200;6.530;2023-01-31T12:11:29;22.95;;;4.35;;
76236;SDS011;65038;53.200;6.530;2023-01-31T12:16:28;23.70;;;3.92;;
76236;SDS011;65038;53.200;6.530;2023-01-31T12:24:12;19.92;;;3.40;;
76236;SDS011;65038;53.200;6.530;2023-01-31T12:26:46;18.83;;;3.40;;
76236;SDS011;65038;53.200;6.530;2023-01-31T12:29:17;19.15;;;3.67;;
76236;SDS011;65038;53.200;6.530;2023-01-31T12:31:56;21.60;;;3.60;;
76236;SDS011;65038;53.200;6.530;2023-01-31T12:34:29;18.65;;;3.65;;
76236;SDS011;65038;53.200;6.530;2023-01-31T12:39:36;17.80;;;3.40;;
76236;SDS011;65038;53.200;6.530;2023-01-31T12:44:44;19.45;;;3.40;;
76236;SDS011;65038;53.200;6.530;2023-01-31T12:47:21;17.05;;;3.40;;
76236;SDS011;65038;53.200;6.530;2023-01-31T12:58:07;17.55;;;3.33;;
76236;SDS011;65038;53.200;6.530;2023-01-31T13:05:45;15.85;;;3.08;;
76236;SDS011;65038;53.200;6.530;2023-01-31T13:10:57;15.68;;;3.17;;
76236;SDS011;65038;53.200;6.530;2023-01-31T13:13:27;14.63;;;3.25;;
76236;SDS011;65038;53.200;6.530;2023-01-31T13:15:57;14.70;;;3.15;;
76236;SDS011;65038;53.200;6.530;2023-01-31T13:18:24;14.23;;;2.97;;
76236;SDS011;65038;53.200;6.530;2023-01-31T13:20:58;15.93;;;2.85;;
76236;SDS011;65038;53.200;6.530;2023-01-31T13:26:01;14.82;;;2.53;;
76236;SDS011;65038;53.200;6.530;2023-01-31T13:28:29;15.85;;;3.05;;
76236;SDS011;65038;53.200;6.530;2023-01-31T13:30:57;15.38;;;2.83;;
76236;SDS011;65038;53.200;6.530;2023-01-31T13:33:40;16.13;;;3.00;;
76236;SDS011;65038;53.200;6.530;2023-01-31T13:36:17;15.60;;;3.28;;
76236;SDS011;65038;53.200;6.530;2023-01-31T13:38:46;13.38;;;2.90;;
76236;SDS011;65038;53.200;6.530;2023-01-31T13:41:18;18.35;;;3.30;;
76236;SDS011;65038;53.200;6.530;2023-01-31T13:43:45;17.77;;;3.22;;
76236;SDS011;65038;53.200;6.530;2023-01-31T13:46:11;13.20;;;3.17;;
76236;SDS011;65038;53.200;6.530;2023-01-31T13:48:44;17.55;;;3.03;;
76236;SDS011;65038;53.200;6.530;2023-01-31T13:51:13;13.02;;;2.88;;
76236;SDS011;65038;53.200;6.530;2023-01-31T13:53:52;13.35;;;3.00;;
76236;SDS011;65038;53.200;6.530;2023-01-31T13:56:22;14.88;;;3.05;;
76236;SDS011;65038;53.200;6.530;2023-01-31T13:58:50;18.42;;;3.30;;
76236;SDS011;65038;53.200;6.530;2023-01-31T14:01:24;16.50;;;3.33;;
76236;SDS011;65038;53.200;6.530;2023-01-31T14:06:55;18.35;;;3.58;;
76236;SDS011;65038;53.200;6.530;2023-01-31T14:09:23;19.83;;;3.25;;
76236;SDS011;65038;53.200;6.530;2023-01-31T14:11:50;15.73;;;3.10;;
76236;SDS011;65038;53.200;6.530;2023-01-31T14:16:54;17.17;;;3.00;;
76236;SDS011;65038;53.200;6.530;2023-01-31T14:27:09;20.08;;;3.47;;
76236;SDS011;65038;53.200;6.530;2023-01-31T14:29:39;16.40;;;3.20;;
76236;SDS011;65038;53.200;6.530;2023-01-31T14:32:12;14.98;;;3.05;;
76236;SDS011;65038;53.200;6.530;2023-01-31T14:34:38;12.65;;;3.08;;
76236;SDS011;65038;53.200;6.530;2023-01-31T14:37:11;16.70;;;3.30;;
76236;SDS011;65038;53.200;6.530;2023-01-31T14:39:53;15.57;;;3.00;;
76236;SDS011;65038;53.200;6.530;2023-01-31T14:45:18;20.15;;;3.30;;
76236;SDS011;65038;53.200;6.530;2023-01-31T14:53:01;17.77;;;3.88;;
76236;SDS011;65038;53.200;6.530;2023-01-31T14:58:19;18.55;;;3.60;;
76236;SDS011;65038;53.200;6.530;2023-01-31T15:00:50;15.63;;;3.22;;
76236;SDS011;65038;53.200;6.530;2023-01-31T15:06:42;14.88;;;3.20;;
76236;SDS011;65038;53.200;6.530;2023-01-31T15:11:49;18.40;;;3.50;;
76236;SDS011;65038;53.200;6.530;2023-01-31T15:14:37;19.17;;;4.00;;
76236;SDS011;65038;53.200;6.530;2023-01-31T15:19:52;19.83;;;3.88;;
76236;SDS011;65038;53.200;6.530;2023-01-31T15:22:19;20.17;;;3.92;;
76236;SDS011;65038;53.200;6.530;2023-01-31T15:24:48;25.55;;;4.13;;
76236;SDS011;65038;53.200;6.530;2023-01-31T15:27:21;20.73;;;3.80;;
76236;SDS011;65038;53.200;6.530;2023-01-31T15:32:23;26.73;;;5.10;;
76236;SDS011;65038;53.200;6.530;2023-01-31T15:35:03;21.63;;;4.25;;
76236;SDS011;65038;53.200;6.530;2023-01-31T15:37:31;18.70;;;4.00;;
76236;SDS011;65038;53.200;6.530;2023-01-31T15:40:10;20.70;;;4.15;;
76236;SDS011;65038;53.200;6.530;2023-01-31T15:42:37;19.77;;;4.05;;
76236;SDS011;65038;53.200;6.530;2023-01-31T15:47:38;22.47;;;4.00;;
76236;SDS011;65038;53.200;6.530;2023-01-31T15:50:14;20.33;;;4.00;;
76236;SDS011;65038;53.200;6.530;2023-01-31T15:52:41;22.80;;;4.25;;
76236;SDS011;65038;53.200;6.530;2023-01-31T15:55:08;20.23;;;4.10;;
76236;SDS011;65038;53.200;6.530;2023-01-31T15:57:37;21.38;;;4.13;;
76236;SDS011;65038;53.200;6.530;2023-01-31T16:00:05;29.27;;;4.93;;
76236;SDS011;65038;53.200;6.530;2023-01-31T16:02:32;19.75;;;4.28;;
76236;SDS011;65038;53.200;6.530;2023-01-31T16:04:58;27.50;;;4.85;;
76236;SDS011;65038;53.200;6.530;2023-01-31T16:07:25;24.20;;;4.55;;
76236;SDS011;65038;53.200;6.530;2023-01-31T16:09:56;22.52;;;4.00;;
76236;SDS011;65038;53.200;6.530;2023-01-31T16:12:22;25.52;;;4.70;;
76236;SDS011;65038;53.200;6.530;2023-01-31T16:14:49;21.33;;;4.78;;
76236;SDS011;65038;53.200;6.530;2023-01-31T16:17:18;27.08;;;4.30;;
76236;SDS011;65038;53.200;6.530;2023-01-31T16:19:47;26.13;;;4.35;;
76236;SDS011;65038;53.200;6.530;2023-01-31T16:22:25;25.85;;;4.50;;
76236;SDS011;65038;53.200;6.530;2023-01-31T16:24:56;22.75;;;4.75;;
76236;SDS011;65038;53.200;6.530;2023-01-31T16:27:23;20.58;;;4.25;;
76236;SDS011;65038;53.200;6.530;2023-01-31T16:29:50;29.13;;;4.50;;
76236;SDS011;65038;53.200;6.530;2023-01-31T16:34:42;18.70;;;3.88;;
76236;SDS011;65038;53.200;6.530;2023-01-31T16:37:09;19.67;;;4.25;;
76236;SDS011;65038;53.200;6.530;2023-01-31T16:39:43;20.23;;;4.25;;
76236;SDS011;65038;53.200;6.530;2023-01-31T16:44:45;25.20;;;4.22;;
76236;SDS011;65038;53.200;6.530;2023-01-31T16:52:40;19.58;;;4.25;;
76236;SDS011;65038;53.200;6.530;2023-01-31T16:55:11;16.10;;;4.15;;
76236;SDS011;65038;53.200;6.530;2023-01-31T16:57:38;22.02;;;4.13;;
76236;SDS011;65038;53.200;6.530;2023-01-31T17:00:05;24.02;;;4.22;;
76236;SDS011;65038;53.200;6.530;2023-01-31T17:02:32;24.17;;;4.40;;
76236;SDS011;65038;53.200;6.530;2023-01-31T17:05:00;24.23;;;4.38;;
76236;SDS011;65038;53.200;6.530;2023-01-31T17:07:33;23.15;;;4.68;;
76236;SDS011;65038;53.200;6.530;2023-01-31T17:10:01;24.15;;;5.10;;
76236;SDS011;65038;53.200;6.530;2023-01-31T17:12:28;23.50;;;4.53;;